sensor_id;sensor_type;location;lat;lon;timestamp;P1;durP1;ratioP1;P2;durP2;ratioP2
3101;SDS011;1561;42.666;23.392;2024-02-26T00:01:16;20.30;;;8.90;;
3101;SDS011;1561;42.666;23.392;2024-02-26T00:03:52;12.10;;;9.40;;
3101;SDS011;1561;42.666;23.392;2024-02-26T00:06:28;13.13;;;8.50;;
3101;SDS011;1561;42.666;23.392;2024-02-26T00:08:58;12.10;;;8.83;;
3101;SDS011;1561;42.666;23.392;2024-02-26T00:11:31;13.80;;;8.53;;
3101;SDS011;1561;42.666;23.392;2024-02-26T00:14:00;11.87;;;9.20;;
3101;SDS011;1561;42.666;23.392;2024-02-26T00:16:39;12.80;;;9.17;;
3101;SDS011;1561;42.666;23.392;2024-02-26T00:19:16;16.00;;;8.93;;
3101;SDS011;1561;42.666;23.392;2024-02-26T00:21:45;12.03;;;8.60;;
3101;SDS011;1561;42.666;23.392;2024-02-26T00:24:17;14.37;;;9.93;;
3101;SDS011;1561;42.666;23.392;2024-02-26T00:26:56;14.00;;;9.80;;
3101;SDS011;1561;42.666;23.392;2024-02-26T00:29:38;18.57;;;14.00;;
3101;SDS011;1561;42.666;23.392;2024-02-26T00:32:07;19.70;;;14.97;;
3101;SDS011;1561;42.666;23.392;2024-02-26T00:34:46;19.00;;;11.20;;
3101;SDS011;1561;42.666;23.392;2024-02-26T00:37:15;20.83;;;13.73;;
3101;SDS011;1561;42.666;23.392;2024-02-26T00:39:54;26.00;;;17.77;;
3101;SDS011;1561;42.666;23.392;2024-02-26T00:42:27;34.13;;;22.80;;
3101;SDS011;1561;42.666;23.392;2024-02-26T00:45:00;47.47;;;30.33;;
3101;SDS011;1561;42.666;23.392;2024-02-26T00:47:29;48.20;;;31.27;;
3101;SDS011;1561;42.666;23.392;2024-02-26T00:49:58;48.27;;;32.10;;
3101;SDS011;1561;42.666;23.392;2024-02-26T00:52:29;41.73;;;29.23;;
3101;SDS011;1561;42.666;23.392;2024-02-26T00:54:59;38.03;;;26.57;;
3101;SDS011;1561;42.666;23.392;2024-02-26T00:57:29;36.73;;;25.07;;
3101;SDS011;1561;42.666;23.392;2024-02-26T01:00:10;26.60;;;18.43;;
3101;SDS011;1561;42.666;23.392;2024-02-26T01:02:41;28.83;;;20.13;;
3101;SDS011;1561;42.666;23.392;2024-02-26T01:05:18;26.40;;;19.40;;
3101;SDS011;1561;42.666;23.392;2024-02-26T01:07:48;23.63;;;17.60;;
3101;SDS011;1561;42.666;23.392;2024-02-26T01:10:29;19.57;;;14.80;;
3101;SDS011;1561;42.666;23.392;2024-02-26T01:13:20;21.60;;;14.20;;
3101;SDS011;1561;42.666;23.392;2024-02-26T01:15:52;19.57;;;14.77;;
3101;SDS011;1561;42.666;23.392;2024-02-26T01:18:22;15.80;;;11.70;;
3101;SDS011;1561;42.666;23.392;2024-02-26T01:21:01;19.70;;;11.90;;
3101;SDS011;1561;42.666;23.392;2024-02-26T01:23:33;23.73;;;13.10;;
3101;SDS011;1561;42.666;23.392;2024-02-26T01:26:09;18.00;;;12.87;;
3101;SDS011;1561;42.666;23.392;2024-02-26T01:28:38;14.47;;;10.73;;
3101;SDS011;1561;42.666;23.392;2024-02-26T01:31:11;17.43;;;11.67;;
3101;SDS011;1561;42.666;23.392;2024-02-26T01:33:40;23.07;;;14.10;;
3101;SDS011;1561;42.666;23.392;2024-02-26T01:36:09;20.90;;;14.73;;
3101;SDS011;1561;42.666;23.392;2024-02-26T01:38:39;17.20;;;13.10;;
3101;SDS011;1561;42.666;23.392;2024-02-26T01:41:16;23.30;;;16.27;;
3101;SDS011;1561;42.666;23.392;2024-02-26T01:43:47;35.93;;;22.00;;
3101;SDS011;1561;42.666;23.392;2024-02-26T01:46:19;35.07;;;24.23;;
3101;SDS011;1561;42.666;23.392;2024-02-26T01:48:58;43.23;;;29.97;;
3101;SDS011;1561;42.666;23.392;2024-02-26T01:51:47;29.23;;;18.90;;
3101;SDS011;1561;42.666;23.392;2024-02-26T01:54:21;47.20;;;32.10;;
3101;SDS011;1561;42.666;23.392;2024-02-26T01:56:52;51.03;;;34.53;;
3101;SDS011;1561;42.666;23.392;2024-02-26T01:59:25;51.37;;;34.73;;
3101;SDS011;1561;42.666;23.392;2024-02-26T02:01:57;49.20;;;34.60;;
3101;SDS011;1561;42.666;23.392;2024-02-26T02:04:39;46.90;;;31.13;;
3101;SDS011;1561;42.666;23.392;2024-02-26T02:07:19;51.23;;;32.97;;
3101;SDS011;1561;42.666;23.392;2024-02-26T02:09:53;39.73;;;27.00;;
3101;SDS011;1561;42.666;23.392;2024-02-26T02:12:23;28.80;;;19.87;;
3101;SDS011;1561;42.666;23.392;2024-02-26T02:14:54;50.80;;;31.00;;
3101;SDS011;1561;42.666;23.392;2024-02-26T02:17:24;50.33;;;33.77;;
3101;SDS011;1561;42.666;23.392;2024-02-26T02:19:58;51.33;;;34.70;;
3101;SDS011;1561;42.666;23.392;2024-02-26T02:22:39;44.63;;;27.07;;
3101;SDS011;1561;42.666;23.392;2024-02-26T02:25:08;37.20;;;27.20;;
3101;SDS011;1561;42.666;23.392;2024-02-26T02:27:45;37.20;;;26.60;;
3101;SDS011;1561;42.666;23.392;2024-02-26T02:30:22;33.77;;;24.40;;
3101;SDS011;1561;42.666;23.392;2024-02-26T02:33:02;37.03;;;25.23;;
3101;SDS011;1561;42.666;23.392;2024-02-26T02:35:47;22.33;;;15.70;;
3101;SDS011;1561;42.666;23.392;2024-02-26T02:38:26;18.20;;;14.40;;
3101;SDS011;1561;42.666;23.392;2024-02-26T02:41:12;24.20;;;13.73;;
3101;SDS011;1561;42.666;23.392;2024-02-26T02:43:44;22.60;;;15.50;;
3101;SDS011;1561;42.666;23.392;2024-02-26T02:46:18;23.93;;;17.03;;
3101;SDS011;1561;42.666;23.392;2024-02-26T02:48:48;20.40;;;15.13;;
3101;SDS011;1561;42.666;23.392;2024-02-26T02:51:17;14.57;;;12.03;;
3101;SDS011;1561;42.666;23.392;2024-02-26T02:53:57;18.80;;;14.70;;
3101;SDS011;1561;42.666;23.392;2024-02-26T02:56:33;16.43;;;12.80;;
3101;SDS011;1561;42.666;23.392;2024-02-26T02:59:03;17.07;;;12.30;;
3101;SDS011;1561;42.666;23.392;2024-02-26T03:01:34;21.83;;;13.20;;
3101;SDS011;1561;42.666;23.392;2024-02-26T03:04:12;15.70;;;11.80;;
3101;SDS011;1561;42.666;23.392;2024-02-26T03:06:47;20.67;;;12.40;;
3101;SDS011;1561;42.666;23.392;2024-02-26T03:09:34;16.50;;;11.20;;
3101;SDS011;1561;42.666;23.392;2024-02-26T03:12:06;16.67;;;11.80;;
3101;SDS011;1561;42.666;23.392;2024-02-26T03:14:40;14.70;;;11.23;;
3101;SDS011;1561;42.666;23.392;2024-02-26T03:17:13;20.00;;;13.13;;
3101;SDS011;1561;42.666;23.392;2024-02-26T03:19:46;15.13;;;11.90;;
3101;SDS011;1561;42.666;23.392;2024-02-26T03:22:29;16.80;;;13.30;;
3101;SDS011;1561;42.666;23.392;2024-02-26T03:25:01;16.73;;;12.47;;
3101;SDS011;1561;42.666;23.392;2024-02-26T03:27:38;21.57;;;14.00;;
3101;SDS011;1561;42.666;23.392;2024-02-26T03:30:30;21.90;;;16.30;;
3101;SDS011;1561;42.666;23.392;2024-02-26T03:33:07;34.23;;;20.97;;
3101;SDS011;1561;42.666;23.392;2024-02-26T03:35:52;34.23;;;23.20;;
3101;SDS011;1561;42.666;23.392;2024-02-26T03:38:42;23.20;;;15.23;;
3101;SDS011;1561;42.666;23.392;2024-02-26T03:41:14;27.17;;;17.70;;
3101;SDS011;1561;42.666;23.392;2024-02-26T03:43:43;34.40;;;23.50;;
3101;SDS011;1561;42.666;23.392;2024-02-26T03:46:15;36.83;;;23.80;;
3101;SDS011;1561;42.666;23.392;2024-02-26T03:48:45;43.43;;;25.60;;
3101;SDS011;1561;42.666;23.392;2024-02-26T03:51:21;44.40;;;30.10;;
3101;SDS011;1561;42.666;23.392;2024-02-26T03:54:02;44.80;;;30.97;;
3101;SDS011;1561;42.666;23.392;2024-02-26T03:56:36;42.63;;;31.50;;
3101;SDS011;1561;42.666;23.392;2024-02-26T03:59:34;47.07;;;32.80;;
3101;SDS011;1561;42.666;23.392;2024-02-26T04:02:06;44.70;;;29.93;;
3101;SDS011;1561;42.666;23.392;2024-02-26T04:04:43;37.23;;;25.57;;
3101;SDS011;1561;42.666;23.392;2024-02-26T04:07:16;45.37;;;31.37;;
3101;SDS011;1561;42.666;23.392;2024-02-26T04:09:48;58.57;;;35.23;;
3101;SDS011;1561;42.666;23.392;2024-02-26T04:12:23;55.47;;;35.63;;
3101;SDS011;1561;42.666;23.392;2024-02-26T04:15:01;46.90;;;33.20;;
3101;SDS011;1561;42.666;23.392;2024-02-26T04:17:36;45.13;;;31.30;;
3101;SDS011;1561;42.666;23.392;2024-02-26T04:20:05;44.60;;;32.40;;
3101;SDS011;1561;42.666;23.392;2024-02-26T04:22:42;51.10;;;34.87;;
3101;SDS011;1561;42.666;23.392;2024-02-26T04:25:11;50.97;;;35.63;;
3101;SDS011;1561;42.666;23.392;2024-02-26T04:27:48;51.33;;;32.87;;
3101;SDS011;1561;42.666;23.392;2024-02-26T04:30:22;50.27;;;34.37;;
3101;SDS011;1561;42.666;23.392;2024-02-26T04:33:05;52.23;;;35.70;;
3101;SDS011;1561;42.666;23.392;2024-02-26T04:35:37;52.30;;;35.47;;
3101;SDS011;1561;42.666;23.392;2024-02-26T04:38:04;47.87;;;35.47;;
3101;SDS011;1561;42.666;23.392;2024-02-26T04:40:34;51.87;;;36.90;;
3101;SDS011;1561;42.666;23.392;2024-02-26T04:45:48;55.07;;;36.00;;
3101;SDS011;1561;42.666;23.392;2024-02-26T04:48:31;55.50;;;36.07;;
3101;SDS011;1561;42.666;23.392;2024-02-26T04:51:02;57.40;;;36.93;;
3101;SDS011;1561;42.666;23.392;2024-02-26T04:53:40;54.53;;;34.57;;
3101;SDS011;1561;42.666;23.392;2024-02-26T04:56:07;55.53;;;34.70;;
3101;SDS011;1561;42.666;23.392;2024-02-26T04:58:36;58.47;;;35.87;;
3101;SDS011;1561;42.666;23.392;2024-02-26T05:01:06;44.43;;;32.50;;
3101;SDS011;1561;42.666;23.392;2024-02-26T05:03:35;45.70;;;32.00;;
3101;SDS011;1561;42.666;23.392;2024-02-26T05:06:04;46.60;;;31.93;;
3101;SDS011;1561;42.666;23.392;2024-02-26T05:08:32;51.03;;;34.63;;
3101;SDS011;1561;42.666;23.392;2024-02-26T05:11:02;48.77;;;35.40;;
3101;SDS011;1561;42.666;23.392;2024-02-26T05:13:34;57.13;;;33.90;;
3101;SDS011;1561;42.666;23.392;2024-02-26T05:16:06;41.30;;;28.37;;
3101;SDS011;1561;42.666;23.392;2024-02-26T05:18:34;43.93;;;28.77;;
3101;SDS011;1561;42.666;23.392;2024-02-26T05:21:04;47.63;;;30.40;;
3101;SDS011;1561;42.666;23.392;2024-02-26T05:23:32;46.40;;;30.10;;
3101;SDS011;1561;42.666;23.392;2024-02-26T05:26:02;42.47;;;29.30;;
3101;SDS011;1561;42.666;23.392;2024-02-26T05:28:32;44.97;;;31.83;;
3101;SDS011;1561;42.666;23.392;2024-02-26T05:31:12;44.63;;;30.47;;
3101;SDS011;1561;42.666;23.392;2024-02-26T05:33:41;47.70;;;29.10;;
3101;SDS011;1561;42.666;23.392;2024-02-26T05:36:09;40.27;;;26.37;;
3101;SDS011;1561;42.666;23.392;2024-02-26T05:38:50;43.20;;;28.40;;
3101;SDS011;1561;42.666;23.392;2024-02-26T05:41:17;42.93;;;28.20;;
3101;SDS011;1561;42.666;23.392;2024-02-26T05:43:48;42.30;;;29.50;;
3101;SDS011;1561;42.666;23.392;2024-02-26T05:46:28;46.30;;;30.60;;
3101;SDS011;1561;42.666;23.392;2024-02-26T05:48:57;49.00;;;29.03;;
3101;SDS011;1561;42.666;23.392;2024-02-26T05:51:25;46.17;;;29.10;;
3101;SDS011;1561;42.666;23.392;2024-02-26T05:54:01;38.20;;;26.27;;
3101;SDS011;1561;42.666;23.392;2024-02-26T05:56:31;37.30;;;25.80;;
3101;SDS011;1561;42.666;23.392;2024-02-26T05:59:01;43.00;;;27.90;;
3101;SDS011;1561;42.666;23.392;2024-02-26T06:01:42;45.70;;;27.63;;
3101;SDS011;1561;42.666;23.392;2024-02-26T06:04:14;36.10;;;24.43;;
3101;SDS011;1561;42.666;23.392;2024-02-26T06:06:53;34.67;;;25.20;;
3101;SDS011;1561;42.666;23.392;2024-02-26T06:09:23;40.77;;;27.80;;
3101;SDS011;1561;42.666;23.392;2024-02-26T06:11:51;51.57;;;34.10;;
3101;SDS011;1561;42.666;23.392;2024-02-26T06:14:39;33.80;;;24.20;;
3101;SDS011;1561;42.666;23.392;2024-02-26T06:17:10;38.00;;;25.20;;
3101;SDS011;1561;42.666;23.392;2024-02-26T06:19:43;30.47;;;22.63;;
3101;SDS011;1561;42.666;23.392;2024-02-26T06:22:11;34.70;;;25.23;;
3101;SDS011;1561;42.666;23.392;2024-02-26T06:24:41;36.53;;;26.90;;
3101;SDS011;1561;42.666;23.392;2024-02-26T06:27:09;41.90;;;26.07;;
3101;SDS011;1561;42.666;23.392;2024-02-26T06:29:49;39.87;;;28.27;;
3101;SDS011;1561;42.666;23.392;2024-02-26T06:35:08;41.73;;;31.20;;
3101;SDS011;1561;42.666;23.392;2024-02-26T06:37:39;48.00;;;32.47;;
3101;SDS011;1561;42.666;23.392;2024-02-26T06:40:09;42.50;;;31.00;;
3101;SDS011;1561;42.666;23.392;2024-02-26T06:42:43;45.20;;;30.63;;
3101;SDS011;1561;42.666;23.392;2024-02-26T06:45:16;39.17;;;29.90;;
3101;SDS011;1561;42.666;23.392;2024-02-26T06:47:53;47.57;;;32.30;;
3101;SDS011;1561;42.666;23.392;2024-02-26T06:50:24;42.80;;;31.33;;
3101;SDS011;1561;42.666;23.392;2024-02-26T06:52:58;41.87;;;30.17;;
3101;SDS011;1561;42.666;23.392;2024-02-26T06:55:38;46.73;;;30.33;;
3101;SDS011;1561;42.666;23.392;2024-02-26T06:58:14;40.43;;;28.20;;
3101;SDS011;1561;42.666;23.392;2024-02-26T07:00:42;42.73;;;28.97;;
3101;SDS011;1561;42.666;23.392;2024-02-26T07:03:23;38.97;;;28.20;;
3101;SDS011;1561;42.666;23.392;2024-02-26T07:05:59;43.43;;;26.30;;
3101;SDS011;1561;42.666;23.392;2024-02-26T07:08:29;41.83;;;27.23;;
3101;SDS011;1561;42.666;23.392;2024-02-26T07:11:17;60.03;;;34.57;;
3101;SDS011;1561;42.666;23.392;2024-02-26T07:13:45;40.87;;;28.97;;
3101;SDS011;1561;42.666;23.392;2024-02-26T07:16:30;51.70;;;32.00;;
3101;SDS011;1561;42.666;23.392;2024-02-26T07:19:05;41.57;;;28.10;;
3101;SDS011;1561;42.666;23.392;2024-02-26T07:21:40;43.30;;;28.63;;
3101;SDS011;1561;42.666;23.392;2024-02-26T07:24:13;40.70;;;27.17;;
3101;SDS011;1561;42.666;23.392;2024-02-26T07:26:42;46.93;;;25.50;;
3101;SDS011;1561;42.666;23.392;2024-02-26T07:29:13;42.13;;;27.57;;
3101;SDS011;1561;42.666;23.392;2024-02-26T07:31:44;43.50;;;29.47;;
3101;SDS011;1561;42.666;23.392;2024-02-26T07:34:24;35.20;;;25.90;;
3101;SDS011;1561;42.666;23.392;2024-02-26T07:36:56;37.17;;;26.23;;
3101;SDS011;1561;42.666;23.392;2024-02-26T07:39:27;35.63;;;24.27;;
3101;SDS011;1561;42.666;23.392;2024-02-26T07:42:00;29.37;;;22.00;;
3101;SDS011;1561;42.666;23.392;2024-02-26T07:44:38;37.43;;;25.10;;
3101;SDS011;1561;42.666;23.392;2024-02-26T07:47:15;38.80;;;27.63;;
3101;SDS011;1561;42.666;23.392;2024-02-26T07:49:48;34.50;;;24.27;;
3101;SDS011;1561;42.666;23.392;2024-02-26T07:52:18;25.17;;;16.13;;
3101;SDS011;1561;42.666;23.392;2024-02-26T07:54:46;30.70;;;17.40;;
3101;SDS011;1561;42.666;23.392;2024-02-26T07:57:14;39.33;;;21.70;;
3101;SDS011;1561;42.666;23.392;2024-02-26T07:59:42;18.43;;;11.87;;
3101;SDS011;1561;42.666;23.392;2024-02-26T08:02:14;14.17;;;11.20;;
3101;SDS011;1561;42.666;23.392;2024-02-26T08:04:44;22.63;;;14.00;;
3101;SDS011;1561;42.666;23.392;2024-02-26T08:07:13;22.07;;;14.73;;
3101;SDS011;1561;42.666;23.392;2024-02-26T08:09:40;20.53;;;15.07;;
3101;SDS011;1561;42.666;23.392;2024-02-26T08:12:12;22.27;;;15.70;;
3101;SDS011;1561;42.666;23.392;2024-02-26T08:14:40;25.50;;;19.07;;
3101;SDS011;1561;42.666;23.392;2024-02-26T08:17:10;30.10;;;24.90;;
3101;SDS011;1561;42.666;23.392;2024-02-26T08:19:39;44.03;;;34.53;;
3101;SDS011;1561;42.666;23.392;2024-02-26T08:22:14;57.77;;;41.13;;
3101;SDS011;1561;42.666;23.392;2024-02-26T08:24:43;21.00;;;18.13;;
3101;SDS011;1561;42.666;23.392;2024-02-26T08:27:15;22.63;;;14.33;;
3101;SDS011;1561;42.666;23.392;2024-02-26T08:29:44;23.27;;;17.17;;
3101;SDS011;1561;42.666;23.392;2024-02-26T08:32:11;20.37;;;14.70;;
3101;SDS011;1561;42.666;23.392;2024-02-26T08:34:39;20.30;;;14.70;;
3101;SDS011;1561;42.666;23.392;2024-02-26T08:37:09;20.57;;;14.53;;
3101;SDS011;1561;42.666;23.392;2024-02-26T08:39:38;36.13;;;18.10;;
3101;SDS011;1561;42.666;23.392;2024-02-26T08:42:06;24.73;;;18.33;;
3101;SDS011;1561;42.666;23.392;2024-02-26T08:44:34;26.53;;;18.17;;
3101;SDS011;1561;42.666;23.392;2024-02-26T08:47:01;21.20;;;12.77;;
3101;SDS011;1561;42.666;23.392;2024-02-26T08:49:30;17.53;;;11.90;;
3101;SDS011;1561;42.666;23.392;2024-02-26T08:51:57;13.17;;;9.97;;
3101;SDS011;1561;42.666;23.392;2024-02-26T08:54:24;13.70;;;11.00;;
3101;SDS011;1561;42.666;23.392;2024-02-26T08:56:53;14.77;;;10.93;;
3101;SDS011;1561;42.666;23.392;2024-02-26T08:59:20;26.27;;;16.37;;
3101;SDS011;1561;42.666;23.392;2024-02-26T09:01:48;12.33;;;9.90;;
3101;SDS011;1561;42.666;23.392;2024-02-26T09:04:17;19.10;;;12.50;;
3101;SDS011;1561;42.666;23.392;2024-02-26T09:06:50;31.23;;;22.23;;
3101;SDS011;1561;42.666;23.392;2024-02-26T09:09:22;11.33;;;9.83;;
3101;SDS011;1561;42.666;23.392;2024-02-26T09:11:56;18.13;;;9.83;;
3101;SDS011;1561;42.666;23.392;2024-02-26T09:14:25;10.00;;;8.50;;
3101;SDS011;1561;42.666;23.392;2024-02-26T09:17:08;10.37;;;9.03;;
3101;SDS011;1561;42.666;23.392;2024-02-26T09:19:42;13.70;;;9.43;;
3101;SDS011;1561;42.666;23.392;2024-02-26T09:22:11;10.93;;;8.43;;
3101;SDS011;1561;42.666;23.392;2024-02-26T09:24:44;10.83;;;8.97;;
3101;SDS011;1561;42.666;23.392;2024-02-26T09:27:29;9.67;;;8.67;;
3101;SDS011;1561;42.666;23.392;2024-02-26T09:30:02;14.27;;;9.03;;
3101;SDS011;1561;42.666;23.392;2024-02-26T09:32:30;10.73;;;8.70;;
3101;SDS011;1561;42.666;23.392;2024-02-26T09:34:59;9.83;;;8.27;;
3101;SDS011;1561;42.666;23.392;2024-02-26T09:37:34;13.47;;;9.10;;
3101;SDS011;1561;42.666;23.392;2024-02-26T09:40:10;8.27;;;7.47;;
3101;SDS011;1561;42.666;23.392;2024-02-26T09:42:47;9.70;;;7.77;;
3101;SDS011;1561;42.666;23.392;2024-02-26T09:45:21;8.87;;;7.50;;
3101;SDS011;1561;42.666;23.392;2024-02-26T09:48:08;10.50;;;8.27;;
3101;SDS011;1561;42.666;23.392;2024-02-26T09:50:38;8.80;;;7.50;;
3101;SDS011;1561;42.666;23.392;2024-02-26T09:53:12;9.00;;;7.83;;
3101;SDS011;1561;42.666;23.392;2024-02-26T09:55:57;7.97;;;7.00;;
3101;SDS011;1561;42.666;23.392;2024-02-26T10:01:20;8.97;;;8.07;;
3101;SDS011;1561;42.666;23.392;2024-02-26T10:04:14;9.70;;;7.60;;
3101;SDS011;1561;42.666;23.392;2024-02-26T10:06:46;9.43;;;7.90;;
3101;SDS011;1561;42.666;23.392;2024-02-26T10:09:35;12.20;;;7.43;;
3101;SDS011;1561;42.666;23.392;2024-02-26T10:12:10;10.37;;;9.30;;
3101;SDS011;1561;42.666;23.392;2024-02-26T10:17:39;8.40;;;7.07;;
3101;SDS011;1561;42.666;23.392;2024-02-26T10:20:17;8.17;;;7.30;;
3101;SDS011;1561;42.666;23.392;2024-02-26T10:22:50;9.10;;;8.20;;
3101;SDS011;1561;42.666;23.392;2024-02-26T10:25:33;12.53;;;7.80;;
3101;SDS011;1561;42.666;23.392;2024-02-26T10:28:05;7.63;;;6.80;;
3101;SDS011;1561;42.666;23.392;2024-02-26T10:30:39;18.53;;;13.30;;
3101;SDS011;1561;42.666;23.392;2024-02-26T10:33:09;9.30;;;6.50;;
3101;SDS011;1561;42.666;23.392;2024-02-26T10:35:47;7.80;;;7.10;;
3101;SDS011;1561;42.666;23.392;2024-02-26T10:38:20;12.97;;;10.30;;
3101;SDS011;1561;42.666;23.392;2024-02-26T10:40:53;9.17;;;8.00;;
3101;SDS011;1561;42.666;23.392;2024-02-26T10:43:45;11.83;;;9.40;;
3101;SDS011;1561;42.666;23.392;2024-02-26T10:46:25;8.60;;;7.73;;
3101;SDS011;1561;42.666;23.392;2024-02-26T10:48:59;10.87;;;8.57;;
3101;SDS011;1561;42.666;23.392;2024-02-26T10:51:43;13.67;;;9.40;;
3101;SDS011;1561;42.666;23.392;2024-02-26T10:54:25;8.63;;;7.73;;
3101;SDS011;1561;42.666;23.392;2024-02-26T10:57:15;8.07;;;7.07;;
3101;SDS011;1561;42.666;23.392;2024-02-26T10:59:49;14.77;;;10.40;;
3101;SDS011;1561;42.666;23.392;2024-02-26T11:02:50;7.37;;;6.13;;
3101;SDS011;1561;42.666;23.392;2024-02-26T11:05:28;7.77;;;6.80;;
3101;SDS011;1561;42.666;23.392;2024-02-26T11:08:01;7.63;;;6.40;;
3101;SDS011;1561;42.666;23.392;2024-02-26T11:10:44;6.37;;;5.77;;
3101;SDS011;1561;42.666;23.392;2024-02-26T11:13:16;8.23;;;7.33;;
3101;SDS011;1561;42.666;23.392;2024-02-26T11:16:03;8.43;;;7.63;;
3101;SDS011;1561;42.666;23.392;2024-02-26T11:18:59;7.20;;;6.50;;
3101;SDS011;1561;42.666;23.392;2024-02-26T11:24:36;8.40;;;7.00;;
3101;SDS011;1561;42.666;23.392;2024-02-26T11:27:38;7.37;;;6.40;;
3101;SDS011;1561;42.666;23.392;2024-02-26T11:30:28;8.77;;;7.03;;
3101;SDS011;1561;42.666;23.392;2024-02-26T11:33:08;10.60;;;7.70;;
3101;SDS011;1561;42.666;23.392;2024-02-26T11:39:06;8.77;;;7.10;;
3101;SDS011;1561;42.666;23.392;2024-02-26T11:41:44;7.13;;;5.97;;
3101;SDS011;1561;42.666;23.392;2024-02-26T11:44:29;7.27;;;6.63;;
3101;SDS011;1561;42.666;23.392;2024-02-26T11:47:17;10.10;;;7.30;;
3101;SDS011;1561;42.666;23.392;2024-02-26T11:49:49;40.60;;;20.17;;
3101;SDS011;1561;42.666;23.392;2024-02-26T11:52:24;22.70;;;15.80;;
3101;SDS011;1561;42.666;23.392;2024-02-26T12:01:03;14.27;;;10.07;;
3101;SDS011;1561;42.666;23.392;2024-02-26T12:03:35;10.47;;;7.10;;
3101;SDS011;1561;42.666;23.392;2024-02-26T12:06:22;7.03;;;5.37;;
3101;SDS011;1561;42.666;23.392;2024-02-26T12:09:13;7.90;;;7.10;;
3101;SDS011;1561;42.666;23.392;2024-02-26T12:12:02;10.07;;;6.90;;
3101;SDS011;1561;42.666;23.392;2024-02-26T12:14:38;9.40;;;7.70;;
3101;SDS011;1561;42.666;23.392;2024-02-26T12:17:31;10.33;;;8.10;;
3101;SDS011;1561;42.666;23.392;2024-02-26T12:20:09;6.47;;;5.30;;
3101;SDS011;1561;42.666;23.392;2024-02-26T12:25:45;8.23;;;6.23;;
3101;SDS011;1561;42.666;23.392;2024-02-26T12:28:27;5.67;;;5.07;;
3101;SDS011;1561;42.666;23.392;2024-02-26T12:31:13;5.60;;;5.07;;
3101;SDS011;1561;42.666;23.392;2024-02-26T12:33:46;6.00;;;5.40;;
3101;SDS011;1561;42.666;23.392;2024-02-26T12:36:17;6.13;;;5.10;;
3101;SDS011;1561;42.666;23.392;2024-02-26T12:38:54;8.63;;;5.77;;
3101;SDS011;1561;42.666;23.392;2024-02-26T12:41:39;6.73;;;5.20;;
3101;SDS011;1561;42.666;23.392;2024-02-26T12:44:24;5.37;;;4.87;;
3101;SDS011;1561;42.666;23.392;2024-02-26T12:46:59;7.17;;;6.13;;
3101;SDS011;1561;42.666;23.392;2024-02-26T12:49:33;9.23;;;7.70;;
3101;SDS011;1561;42.666;23.392;2024-02-26T12:52:08;10.90;;;5.53;;
3101;SDS011;1561;42.666;23.392;2024-02-26T12:54:58;5.87;;;5.23;;
3101;SDS011;1561;42.666;23.392;2024-02-26T12:57:28;7.53;;;5.40;;
3101;SDS011;1561;42.666;23.392;2024-02-26T13:03:00;7.20;;;5.63;;
3101;SDS011;1561;42.666;23.392;2024-02-26T13:05:35;8.13;;;4.90;;
3101;SDS011;1561;42.666;23.392;2024-02-26T13:08:11;9.50;;;8.40;;
3101;SDS011;1561;42.666;23.392;2024-02-26T13:10:51;7.40;;;4.83;;
3101;SDS011;1561;42.666;23.392;2024-02-26T13:13:39;9.10;;;5.57;;
3101;SDS011;1561;42.666;23.392;2024-02-26T13:16:13;7.40;;;5.17;;
3101;SDS011;1561;42.666;23.392;2024-02-26T13:18:41;6.10;;;5.10;;
3101;SDS011;1561;42.666;23.392;2024-02-26T13:21:14;5.70;;;4.90;;
3101;SDS011;1561;42.666;23.392;2024-02-26T13:23:47;7.20;;;5.90;;
3101;SDS011;1561;42.666;23.392;2024-02-26T13:26:21;10.10;;;7.90;;
3101;SDS011;1561;42.666;23.392;2024-02-26T13:28:55;8.57;;;5.73;;
3101;SDS011;1561;42.666;23.392;2024-02-26T13:31:40;28.37;;;16.27;;
3101;SDS011;1561;42.666;23.392;2024-02-26T13:34:23;11.83;;;8.43;;
3101;SDS011;1561;42.666;23.392;2024-02-26T13:36:52;9.03;;;5.70;;
3101;SDS011;1561;42.666;23.392;2024-02-26T13:39:23;6.33;;;5.30;;
3101;SDS011;1561;42.666;23.392;2024-02-26T13:42:07;9.97;;;5.10;;
3101;SDS011;1561;42.666;23.392;2024-02-26T13:44:43;5.67;;;4.70;;
3101;SDS011;1561;42.666;23.392;2024-02-26T13:47:23;6.07;;;5.47;;
3101;SDS011;1561;42.666;23.392;2024-02-26T13:50:00;5.97;;;5.10;;
3101;SDS011;1561;42.666;23.392;2024-02-26T13:52:30;6.23;;;4.60;;
3101;SDS011;1561;42.666;23.392;2024-02-26T13:55:01;7.83;;;5.27;;
3101;SDS011;1561;42.666;23.392;2024-02-26T13:57:32;6.90;;;5.40;;
3101;SDS011;1561;42.666;23.392;2024-02-26T13:59:59;8.77;;;6.93;;
3101;SDS011;1561;42.666;23.392;2024-02-26T14:02:50;7.77;;;6.00;;
3101;SDS011;1561;42.666;23.392;2024-02-26T14:05:25;10.83;;;9.37;;
3101;SDS011;1561;42.666;23.392;2024-02-26T14:07:55;7.43;;;4.63;;
3101;SDS011;1561;42.666;23.392;2024-02-26T14:10:25;4.23;;;3.83;;
3101;SDS011;1561;42.666;23.392;2024-02-26T14:12:53;5.50;;;4.20;;
3101;SDS011;1561;42.666;23.392;2024-02-26T14:15:25;5.00;;;4.50;;
3101;SDS011;1561;42.666;23.392;2024-02-26T14:17:54;10.70;;;4.90;;
3101;SDS011;1561;42.666;23.392;2024-02-26T14:20:47;5.50;;;4.27;;
3101;SDS011;1561;42.666;23.392;2024-02-26T14:23:21;6.70;;;4.90;;
3101;SDS011;1561;42.666;23.392;2024-02-26T14:25:49;4.77;;;4.27;;
3101;SDS011;1561;42.666;23.392;2024-02-26T14:28:16;14.70;;;8.47;;
3101;SDS011;1561;42.666;23.392;2024-02-26T14:30:44;5.40;;;4.70;;
3101;SDS011;1561;42.666;23.392;2024-02-26T14:33:12;14.73;;;8.63;;
3101;SDS011;1561;42.666;23.392;2024-02-26T14:35:39;9.10;;;4.60;;
3101;SDS011;1561;42.666;23.392;2024-02-26T14:38:06;4.47;;;4.17;;
3101;SDS011;1561;42.666;23.392;2024-02-26T14:40:40;5.43;;;4.93;;
3101;SDS011;1561;42.666;23.392;2024-02-26T14:43:11;11.73;;;4.90;;
3101;SDS011;1561;42.666;23.392;2024-02-26T14:45:38;17.77;;;10.10;;
3101;SDS011;1561;42.666;23.392;2024-02-26T14:48:05;10.17;;;5.70;;
3101;SDS011;1561;42.666;23.392;2024-02-26T14:50:33;14.63;;;4.90;;
3101;SDS011;1561;42.666;23.392;2024-02-26T14:53:02;14.57;;;5.47;;
3101;SDS011;1561;42.666;23.392;2024-02-26T14:55:34;15.53;;;10.87;;
3101;SDS011;1561;42.666;23.392;2024-02-26T14:58:06;5.90;;;5.27;;
3101;SDS011;1561;42.666;23.392;2024-02-26T15:00:42;49.07;;;29.90;;
3101;SDS011;1561;42.666;23.392;2024-02-26T15:03:11;6.60;;;5.70;;
3101;SDS011;1561;42.666;23.392;2024-02-26T15:05:40;6.03;;;4.83;;
3101;SDS011;1561;42.666;23.392;2024-02-26T15:08:09;10.90;;;5.50;;
3101;SDS011;1561;42.666;23.392;2024-02-26T15:10:40;7.30;;;4.70;;
3101;SDS011;1561;42.666;23.392;2024-02-26T15:13:17;6.60;;;4.60;;
3101;SDS011;1561;42.666;23.392;2024-02-26T15:15:50;5.40;;;4.50;;
3101;SDS011;1561;42.666;23.392;2024-02-26T15:18:22;8.20;;;5.50;;
3101;SDS011;1561;42.666;23.392;2024-02-26T15:20:52;5.47;;;4.53;;
3101;SDS011;1561;42.666;23.392;2024-02-26T15:23:21;12.87;;;9.63;;
3101;SDS011;1561;42.666;23.392;2024-02-26T15:25:50;7.20;;;6.40;;
3101;SDS011;1561;42.666;23.392;2024-02-26T15:28:20;4.73;;;4.10;;
3101;SDS011;1561;42.666;23.392;2024-02-26T15:30:47;11.93;;;4.93;;
3101;SDS011;1561;42.666;23.392;2024-02-26T15:33:16;5.63;;;4.20;;
3101;SDS011;1561;42.666;23.392;2024-02-26T15:35:45;5.60;;;4.67;;
3101;SDS011;1561;42.666;23.392;2024-02-26T15:38:13;7.00;;;5.00;;
3101;SDS011;1561;42.666;23.392;2024-02-26T15:41:00;6.27;;;4.80;;
3101;SDS011;1561;42.666;23.392;2024-02-26T15:43:33;6.57;;;4.77;;
3101;SDS011;1561;42.666;23.392;2024-02-26T15:46:02;5.53;;;5.03;;
3101;SDS011;1561;42.666;23.392;2024-02-26T15:48:30;10.87;;;4.80;;
3101;SDS011;1561;42.666;23.392;2024-02-26T15:50:59;5.43;;;4.53;;
3101;SDS011;1561;42.666;23.392;2024-02-26T15:53:26;6.77;;;5.50;;
3101;SDS011;1561;42.666;23.392;2024-02-26T15:55:54;7.50;;;5.17;;